createdAt,value
2019-01-21T00:02:03.725Z,-2.70
2019-01-21T00:06:11.985Z,-2.90
2019-01-21T00:10:20.301Z,-2.80
2019-01-21T00:14:28.603Z,-2.70
2019-01-21T00:18:36.919Z,-2.90
2019-01-21T00:22:45.238Z,-2.90
2019-01-21T00:26:53.521Z,-2.80
2019-01-21T00:31:01.885Z,-2.70
2019-01-21T00:35:10.230Z,-2.60
2019-01-21T00:39:18.533Z,-2.70
2019-01-21T00:43:26.850Z,-2.70
2019-01-21T00:47:35.146Z,-3.00
2019-01-21T00:51:43.464Z,-2.80
2019-01-21T00:55:51.765Z,-2.80
2019-01-21T01:00:00.102Z,-2.90
2019-01-21T01:04:08.381Z,-2.90
2019-01-21T01:08:16.711Z,-2.90
2019-01-21T01:12:25.037Z,-2.90
2019-01-21T01:16:33.399Z,-2.90
2019-01-21T01:20:41.717Z,-2.90
2019-01-21T01:24:50.005Z,-3.00
2019-01-21T01:28:58.341Z,-3.00
2019-01-21T01:33:06.697Z,-3.00
2019-01-21T01:37:14.984Z,-3.00
2019-01-21T01:41:23.273Z,-3.00
2019-01-21T01:45:31.521Z,-3.00
2019-01-21T01:49:39.856Z,-3.00
2019-01-21T01:53:48.174Z,-3.00
2019-01-21T01:57:57.641Z,-3.00
2019-01-21T02:02:05.951Z,-3.00
2019-01-21T02:06:14.245Z,-3.10
2019-01-21T02:10:22.616Z,-3.00
2019-01-21T02:14:30.912Z,-3.10
2019-01-21T02:18:39.148Z,-3.00
2019-01-21T02:22:49.357Z,-3.30
2019-01-21T02:27:03.606Z,-3.30
2019-01-21T02:31:36.806Z,-3.30
2019-01-21T02:35:54.764Z,-3.20
2019-01-21T02:42:19.954Z,-3.30
2019-01-21T02:46:37.926Z,-3.20
2019-01-21T02:53:02.787Z,-3.30
2019-01-21T02:57:21.161Z,-3.30
2019-01-21T03:01:41.375Z,-3.30
2019-01-21T03:06:00.126Z,-3.40
2019-01-21T03:10:21.860Z,-3.40
2019-01-21T03:14:39.850Z,-3.50
2019-01-21T03:19:30.456Z,-3.40
2019-01-21T03:23:51.775Z,-3.40
2019-01-21T03:30:16.031Z,-3.50
2019-01-21T03:34:35.433Z,-3.60
2019-01-21T03:38:55.644Z,-3.60
2019-01-21T03:44:16.121Z,-3.50
2019-01-21T03:48:36.178Z,-3.50
2019-01-21T03:52:54.061Z,-3.50
2019-01-21T03:57:10.484Z,-3.50
2019-01-21T04:02:40.674Z,-3.80
2019-01-21T04:06:54.083Z,-3.90
2019-01-21T04:11:18.824Z,-3.80
2019-01-21T04:15:39.779Z,-3.80
2019-01-21T04:20:05.586Z,-3.90
2019-01-21T04:24:26.760Z,-3.90
2019-01-21T04:28:44.651Z,-3.90
2019-01-21T04:33:04.952Z,-3.80
2019-01-21T04:37:26.192Z,-3.80
2019-01-21T04:41:45.853Z,-3.80
2019-01-21T04:46:28.915Z,-3.70
2019-01-21T04:53:53.738Z,-3.70
2019-01-21T04:58:31.997Z,-3.70
2019-01-21T05:02:56.834Z,-4.00
2019-01-21T05:09:48.804Z,-4.00
2019-01-21T05:14:12.144Z,-4.00
2019-01-21T05:19:02.417Z,-4.00
2019-01-21T05:24:25.695Z,-3.90
2019-01-21T05:29:45.449Z,-3.90
2019-01-21T05:34:13.874Z,-3.90
2019-01-21T05:39:00.124Z,-3.90
2019-01-21T05:43:18.450Z,-4.00
2019-01-21T05:49:44.267Z,-4.10
2019-01-21T05:58:21.626Z,-4.10
2019-01-21T06:06:43.730Z,-4.20
2019-01-21T06:11:08.930Z,-4.30
2019-01-21T06:16:30.263Z,-4.30
2019-01-21T06:21:22.656Z,-4.20
2019-01-21T06:25:42.302Z,-4.10
2019-01-21T06:30:04.714Z,-4.20
2019-01-21T06:36:34.217Z,-4.20
2019-01-21T06:42:54.041Z,-4.20
2019-01-21T06:47:11.701Z,-4.30
2019-01-21T06:52:38.236Z,-4.30
2019-01-21T06:59:12.034Z,-4.30
2019-01-21T07:03:37.069Z,-4.30
2019-01-21T07:07:58.109Z,-4.10
2019-01-21T07:12:20.941Z,-4.10
2019-01-21T07:16:40.690Z,-4.00
2019-01-21T07:22:08.598Z,-4.00
2019-01-21T07:28:34.930Z,-4.00
2019-01-21T07:38:14.696Z,-4.10
2019-01-21T07:42:35.712Z,-4.00
2019-01-21T07:47:15.895Z,-3.90
2019-01-21T08:00:09.409Z,-4.00
2019-01-21T08:04:33.471Z,-3.90
2019-01-21T08:09:57.099Z,-3.90
2019-01-21T08:14:18.838Z,-3.80
2019-01-21T08:18:51.106Z,-3.80
2019-01-21T08:23:14.187Z,-3.70
2019-01-21T08:28:08.479Z,-3.70
2019-01-21T08:32:59.725Z,-3.60
2019-01-21T08:37:20.118Z,-3.60
2019-01-21T08:41:41.540Z,-3.60
2019-01-21T08:46:05.413Z,-3.60
2019-01-21T08:50:24.841Z,-3.50
2019-01-21T08:58:57.474Z,-3.50
2019-01-21T09:04:19.836Z,-3.40
2019-01-21T09:08:39.147Z,-3.30
2019-01-21T09:13:32.392Z,-3.20
2019-01-21T09:17:52.254Z,-3.10
2019-01-21T09:22:11.190Z,-3.00
2019-01-21T09:26:45.594Z,-2.90
2019-01-21T09:33:16.303Z,-2.80
2019-01-21T09:37:34.606Z,-2.70
2019-01-21T09:41:55.675Z,-2.70
2019-01-21T09:46:15.874Z,-2.60
2019-01-21T09:50:24.177Z,-2.60
2019-01-21T09:54:32.413Z,-2.50
2019-01-21T09:58:40.670Z,-2.40
2019-01-21T10:02:49.215Z,-2.40
2019-01-21T10:07:08.738Z,-2.40
2019-01-21T10:13:31.558Z,-2.30
2019-01-21T10:22:20.894Z,-2.20
2019-01-21T10:26:40.069Z,-2.10
2019-01-21T10:31:05.341Z,-2.00
2019-01-21T10:36:08.095Z,-2.00
2019-01-21T10:40:33.193Z,-1.90
2019-01-21T10:44:52.479Z,-1.90
2019-01-21T10:49:28.250Z,-1.80
2019-01-21T10:53:49.674Z,-1.70
2019-01-21T10:58:23.386Z,-1.60
2019-01-21T11:02:57.492Z,-1.50
2019-01-21T11:07:51.873Z,-1.40
2019-01-21T11:12:41.292Z,-1.30
2019-01-21T11:17:04.453Z,-1.30
2019-01-21T11:22:22.624Z,-1.20
2019-01-21T11:28:47.870Z,-1.10
2019-01-21T11:35:07.242Z,-1.00
2019-01-21T11:39:28.344Z,-0.60
2019-01-21T11:43:55.558Z,-0.60
2019-01-21T11:50:20.477Z,-0.40
2019-01-21T11:54:38.769Z,-0.40
2019-01-21T12:01:08.587Z,-0.30
2019-01-21T12:05:23.757Z,-0.30
2019-01-21T12:09:50.317Z,-0.20
2019-01-21T12:14:16.650Z,-0.10
2019-01-21T12:18:34.457Z,-0.10
2019-01-21T12:22:56.754Z,0.00
2019-01-21T12:28:17.633Z,0.00
2019-01-21T12:33:06.751Z,0.10
2019-01-21T12:37:28.291Z,0.20
2019-01-21T12:42:05.546Z,0.20
2019-01-21T12:46:35.512Z,0.30
2019-01-21T12:50:59.734Z,0.30
2019-01-21T12:55:49.474Z,0.40
2019-01-21T13:00:07.373Z,0.40
2019-01-21T13:04:59.382Z,0.40
2019-01-21T13:09:31.870Z,0.50
2019-01-21T13:15:54.077Z,0.50
2019-01-21T13:20:17.234Z,0.60
2019-01-21T13:24:38.325Z,0.60
2019-01-21T13:29:10.917Z,0.70
2019-01-21T13:33:30.183Z,0.60
2019-01-21T13:37:53.195Z,0.60
2019-01-21T13:42:22.724Z,0.60
2019-01-21T13:46:58.969Z,0.70
2019-01-21T13:51:25.000Z,0.70
2019-01-21T13:55:53.202Z,0.70
2019-01-21T14:00:14.121Z,0.70
2019-01-21T14:06:44.005Z,0.70
2019-01-21T14:11:05.269Z,0.70
2019-01-21T14:15:55.710Z,0.70
2019-01-21T14:20:32.785Z,0.70
2019-01-21T14:25:10.233Z,0.70
2019-01-21T14:29:42.983Z,0.70
2019-01-21T14:33:59.869Z,0.70
2019-01-21T14:38:21.309Z,0.80
2019-01-21T14:44:44.124Z,0.70
2019-01-21T14:49:08.566Z,0.70
2019-01-21T14:53:32.904Z,0.70
2019-01-21T14:57:57.522Z,0.70
2019-01-21T15:02:16.732Z,0.60
2019-01-21T15:06:34.591Z,0.60
2019-01-21T15:10:57.715Z,0.60
2019-01-21T15:15:51.240Z,0.60
2019-01-21T15:22:12.623Z,0.60
2019-01-21T15:26:45.809Z,0.60
2019-01-21T15:31:12.147Z,0.50
2019-01-21T15:35:34.245Z,0.60
2019-01-21T15:39:52.237Z,0.50
2019-01-21T15:44:08.757Z,0.40
2019-01-21T15:48:44.401Z,0.40
2019-01-21T15:53:06.359Z,0.40
2019-01-21T15:57:28.989Z,0.30
2019-01-21T16:02:17.334Z,0.20
2019-01-21T16:06:36.363Z,0.20
2019-01-21T16:15:09.182Z,0.10
2019-01-21T16:19:21.517Z,0.00
2019-01-21T16:24:09.353Z,-0.10
2019-01-21T16:28:26.801Z,-0.10
2019-01-21T16:33:04.975Z,-0.20
2019-01-21T16:37:42.352Z,-0.30
2019-01-21T16:42:04.834Z,-0.40
2019-01-21T16:46:13.140Z,-0.50
2019-01-21T16:50:21.421Z,-0.50
2019-01-21T16:54:29.684Z,-0.50
2019-01-21T16:58:38.023Z,-0.60
2019-01-21T17:02:46.281Z,-0.60
2019-01-21T17:11:02.613Z,-0.70
2019-01-21T17:15:10.930Z,-0.70
2019-01-21T17:19:19.228Z,-0.70
2019-01-21T17:23:27.485Z,-0.80
2019-01-21T17:27:35.738Z,-0.80
2019-01-21T17:31:44.011Z,-0.80
2019-01-21T17:35:52.314Z,-0.90
2019-01-21T17:40:00.540Z,-1.00
2019-01-21T17:44:08.822Z,-1.00
2019-01-21T17:48:17.124Z,-1.10
2019-01-21T17:52:25.384Z,-1.20
2019-01-21T17:56:33.672Z,-1.20
2019-01-21T18:00:41.961Z,-1.20
2019-01-21T18:04:50.309Z,-1.30
2019-01-21T18:08:58.609Z,-1.20
2019-01-21T18:13:06.894Z,-1.20
2019-01-21T18:17:15.145Z,-1.20
2019-01-21T18:21:24.463Z,-1.30
2019-01-21T18:25:33.119Z,-1.40
2019-01-21T18:29:41.047Z,-1.40
2019-01-21T18:37:57.313Z,-1.50
2019-01-21T18:42:05.604Z,-1.50
2019-01-21T18:46:13.901Z,-1.40
2019-01-21T18:50:22.226Z,-1.50
2019-01-21T18:54:30.564Z,-1.50
2019-01-21T18:58:38.814Z,-1.50
2019-01-21T19:02:47.174Z,-1.50
2019-01-21T19:06:55.442Z,-1.60
2019-01-21T19:11:03.714Z,-1.60
2019-01-21T19:15:18.056Z,-1.70
2019-01-21T19:19:26.316Z,-1.70
2019-01-21T19:23:34.598Z,-1.70
2019-01-21T19:27:42.804Z,-1.70
2019-01-21T19:31:51.087Z,-1.60
2019-01-21T19:35:59.378Z,-1.70
2019-01-21T19:40:10.818Z,-1.70
2019-01-21T19:44:19.045Z,-1.70
2019-01-21T19:48:27.325Z,-1.70
2019-01-21T19:52:35.569Z,-1.80
2019-01-21T19:56:43.925Z,-1.80
2019-01-21T20:00:52.152Z,-1.80
2019-01-21T20:05:00.446Z,-1.80
2019-01-21T20:09:08.702Z,-1.80
2019-01-21T20:13:16.979Z,-1.90
2019-01-21T20:17:25.244Z,-1.90
2019-01-21T20:21:33.531Z,-1.90
2019-01-21T20:25:41.825Z,-1.90
2019-01-21T20:29:50.111Z,-1.90
2019-01-21T20:33:58.435Z,-1.90
2019-01-21T20:38:06.737Z,-2.00
2019-01-21T20:42:15.215Z,-2.00
2019-01-21T20:46:23.478Z,-1.90
2019-01-21T20:50:31.770Z,-2.00
2019-01-21T20:54:40.059Z,-2.00
2019-01-21T20:58:48.346Z,-2.00
2019-01-21T21:02:57.148Z,-2.00
2019-01-21T21:07:05.421Z,-2.00
2019-01-21T21:11:13.682Z,-2.00
2019-01-21T21:15:25.306Z,-2.00
2019-01-21T21:19:33.587Z,-1.90
2019-01-21T21:23:41.865Z,-2.00
2019-01-21T21:27:50.106Z,-2.00
2019-01-21T21:31:58.381Z,-2.00
2019-01-21T21:36:06.709Z,-2.10
2019-01-21T21:40:16.719Z,-2.10
2019-01-21T21:44:25.153Z,-2.10
2019-01-21T21:48:34.598Z,-2.10
2019-01-21T21:52:43.060Z,-2.20
2019-01-21T21:56:51.452Z,-2.20
2019-01-21T22:00:59.745Z,-2.30
2019-01-21T22:05:08.905Z,-2.40
2019-01-21T22:09:17.225Z,-2.40
2019-01-21T22:13:25.513Z,-2.50
2019-01-21T22:17:33.916Z,-2.50
2019-01-21T22:21:42.188Z,-2.40
2019-01-21T22:25:50.446Z,-2.40
2019-01-21T22:29:58.709Z,-2.50
2019-01-21T22:34:06.983Z,-2.50
2019-01-21T22:38:15.292Z,-2.50
2019-01-21T22:42:23.594Z,-2.50
2019-01-21T22:46:31.877Z,-2.50
2019-01-21T22:50:40.132Z,-2.50
2019-01-21T22:54:48.414Z,-2.60
2019-01-21T22:58:56.705Z,-2.50
2019-01-21T23:03:05.163Z,-2.60
2019-01-21T23:07:13.452Z,-2.60
2019-01-21T23:11:21.702Z,-2.60
2019-01-21T23:15:29.978Z,-2.60
2019-01-21T23:19:38.305Z,-2.50
2019-01-21T23:23:46.583Z,-2.50
2019-01-21T23:27:54.902Z,-2.50
2019-01-21T23:32:03.161Z,-2.50
2019-01-21T23:36:11.476Z,-2.40
2019-01-21T23:40:19.754Z,-2.50
2019-01-21T23:44:28.038Z,-2.50
2019-01-21T23:48:36.325Z,-2.60
2019-01-21T23:52:44.581Z,-2.60
2019-01-21T23:56:52.882Z,-2.60
